Time;durP1;ratioP1;P1;durP2;ratioP2;P2;SDS_P1;SDS_P2;PMS_P1;PMS_P2;Temp;Humidity;BMP_temperature;BMP_pressure;BME280_temperature;BME280_humidity;BME280_pressure;Samples;Min_cycle;Max_cycle;Signal;HPM_P1;HPM_P2
2023/12/19 05:02:23;;;;;;;3.72;2.75;;;7.50;99.90;;;;;;4997215;23;20321;-74
2023/12/19 05:04:49;;;;;;;4.05;3.75;;;7.50;99.90;;;;;;4899018;29;20623;-74
2023/12/19 05:07:16;;;;;;;5.45;4.93;;;7.50;99.90;;;;;;4901278;29;20209;-74
2023/12/19 05:09:43;;;;;;;3.80;3.50;;;7.50;99.90;;;;;;4893687;29;20211;-74
2023/12/19 05:12:09;;;;;;;5.10;3.33;;;7.50;99.90;;;;;;4899044;29;20234;-74
2023/12/19 05:14:36;;;;;;;3.70;3.30;;;7.50;99.90;;;;;;4893309;29;20218;-74
2023/12/19 05:17:03;;;;;;;4.88;3.10;;;7.40;99.90;;;;;;4894204;29;20254;-74
2023/12/19 05:19:31;;;;;;;4.57;3.10;;;7.50;99.90;;;;;;4899409;29;20215;-73
2023/12/19 05:21:58;;;;;;;3.20;3.00;;;7.40;99.90;;;;;;4900932;29;20713;-73
2023/12/19 05:24:27;;;;;;;3.72;2.55;;;7.50;99.90;;;;;;4901085;29;20214;-73
2023/12/19 05:26:57;;;;;;;4.50;4.10;;;7.40;99.90;;;;;;4901553;29;20627;-74
2023/12/19 05:29:24;;;;;;;3.38;3.08;;;7.40;99.90;;;;;;4905189;29;20218;-74
2023/12/19 05:31:50;;;;;;;4.03;3.58;;;7.40;99.90;;;;;;4901221;29;20226;-74
2023/12/19 05:34:17;;;;;;;4.63;4.32;;;7.40;99.90;;;;;;4898597;29;20210;-75
2023/12/19 05:36:46;;;;;;;6.38;5.00;;;7.40;99.90;;;;;;4898244;29;20231;-74
2023/12/19 05:39:13;;;;;;;2.97;2.78;;;7.40;99.90;;;;;;4898629;29;20266;-74
2023/12/19 05:41:40;;;;;;;3.17;3.05;;;7.40;99.90;;;;;;4899658;29;20246;-74
2023/12/19 05:44:06;;;;;;;3.35;3.05;;;7.40;99.90;;;;;;4897843;29;20609;-73
2023/12/19 05:46:33;;;;;;;4.30;3.58;;;7.40;99.90;;;;;;4897828;29;20219;-74
2023/12/19 05:49:00;;;;;;;5.00;3.47;;;7.40;99.90;;;;;;4897611;29;20208;-73
2023/12/19 05:51:27;;;;;;;3.03;2.83;;;7.40;99.90;;;;;;4894359;29;20230;-73
2023/12/19 05:53:56;;;;;;;2.78;2.63;;;7.40;99.90;;;;;;4897560;29;20605;-73
2023/12/19 05:56:24;;;;;;;2.60;2.40;;;7.30;99.90;;;;;;4899377;29;20215;-73
2023/12/19 05:58:51;;;;;;;2.47;2.40;;;7.30;99.90;;;;;;4895596;29;20587;-73
2023/12/19 06:01:17;;;;;;;2.85;2.50;;;7.30;99.90;;;;;;4898264;29;20320;-74
2023/12/19 06:03:44;;;;;;;3.00;2.75;;;7.30;99.90;;;;;;4897656;29;20211;-73
2023/12/19 06:06:13;;;;;;;3.45;3.25;;;7.30;99.90;;;;;;4895737;29;20299;-73
2023/12/19 06:08:42;;;;;;;3.00;2.63;;;7.30;99.90;;;;;;4895689;29;20571;-73
2023/12/19 06:11:10;;;;;;;3.08;2.88;;;7.30;99.90;;;;;;4897903;29;20673;-73
2023/12/19 06:13:37;;;;;;;1.55;1.50;;;7.30;99.90;;;;;;4895789;29;20573;-73
2023/12/19 06:16:05;;;;;;;2.90;2.70;;;7.30;99.90;;;;;;4897330;29;20271;-73
2023/12/19 06:18:32;;;;;;;1.85;1.75;;;7.20;99.90;;;;;;4897533;29;20286;-73
2023/12/19 06:21:00;;;;;;;2.25;2.15;;;7.30;99.90;;;;;;4898405;29;20228;-73
2023/12/19 06:23:27;;;;;;;2.15;2.05;;;7.20;99.90;;;;;;4895018;29;20219;-73
2023/12/19 06:25:54;;;;;;;2.00;1.90;;;7.20;99.90;;;;;;4899646;29;20207;-73
2023/12/19 06:28:22;;;;;;;3.30;2.95;;;7.20;99.90;;;;;;4896826;29;20210;-73
2023/12/19 06:30:49;;;;;;;2.55;2.35;;;7.20;99.90;;;;;;4897001;29;20318;-73
2023/12/19 06:33:16;;;;;;;2.40;1.90;;;7.20;99.90;;;;;;4897462;29;20604;-73
2023/12/19 06:35:46;;;;;;;3.47;2.85;;;7.20;99.90;;;;;;4895659;29;20223;-73
2023/12/19 06:38:13;;;;;;;2.65;2.55;;;7.20;99.90;;;;;;4894482;29;20233;-73
2023/12/19 06:40:40;;;;;;;2.40;2.30;;;7.20;99.90;;;;;;4898852;29;20237;-73
2023/12/19 06:43:10;;;;;;;2.03;1.92;;;7.20;99.90;;;;;;4896236;29;20214;-73
2023/12/19 06:45:38;;;;;;;2.28;2.15;;;7.10;99.90;;;;;;4896422;29;20221;-73
2023/12/19 06:48:05;;;;;;;2.70;2.60;;;7.20;99.90;;;;;;4898093;29;20211;-73
2023/12/19 06:50:32;;;;;;;1.20;1.20;;;7.10;99.90;;;;;;4896451;29;20231;-73
2023/12/19 06:52:59;;;;;;;1.67;1.58;;;7.10;99.90;;;;;;4897557;29;20207;-73
2023/12/19 06:55:27;;;;;;;1.23;1.23;;;7.10;99.90;;;;;;4897286;29;20267;-73
2023/12/19 06:57:55;;;;;;;1.98;1.42;;;7.10;99.90;;;;;;4895573;29;20242;-73
2023/12/19 07:00:22;;;;;;;1.40;1.30;;;7.10;99.90;;;;;;4895622;29;20215;-73
2023/12/19 07:02:50;;;;;;;1.20;1.20;;;7.10;99.90;;;;;;4896177;29;20223;-73
2023/12/19 07:05:16;;;;;;;2.20;2.05;;;7.10;99.90;;;;;;4895604;29;20210;-72
2023/12/19 07:07:43;;;;;;;2.28;2.13;;;7.10;99.90;;;;;;4893388;29;20292;-71
2023/12/19 07:10:11;;;;;;;2.38;2.28;;;7.10;99.90;;;;;;4894405;29;20219;-72
2023/12/19 07:12:39;;;;;;;1.25;1.20;;;7.00;99.90;;;;;;4895970;29;20211;-73
2023/12/19 07:15:07;;;;;;;1.00;1.00;;;7.00;99.90;;;;;;4897482;29;20206;-72
2023/12/19 07:17:34;;;;;;;1.27;1.27;;;7.00;99.90;;;;;;4890026;29;20235;-72
2023/12/19 07:20:03;;;;;;;2.50;1.75;;;7.00;99.90;;;;;;4891580;29;20203;-72
2023/12/19 07:22:30;;;;;;;1.23;1.23;;;7.00;99.90;;;;;;4894798;29;20234;-73
2023/12/19 07:24:57;;;;;;;1.70;1.60;;;7.00;99.90;;;;;;4896969;29;20619;-73
2023/12/19 07:27:23;;;;;;;1.15;1.15;;;7.10;99.90;;;;;;4891350;29;20615;-72
2023/12/19 07:29:50;;;;;;;1.35;1.35;;;7.10;99.90;;;;;;4895503;29;20257;-72
2023/12/19 07:32:17;;;;;;;0.60;0.57;;;7.10;99.90;;;;;;4895702;29;20585;-72
2023/12/19 07:34:43;;;;;;;2.08;1.98;;;7.10;99.90;;;;;;4896676;29;20464;-73
2023/12/19 07:37:11;;;;;;;1.15;1.13;;;7.10;99.90;;;;;;4895941;29;20234;-73
2023/12/19 07:39:38;;;;;;;2.17;2.08;;;7.10;99.90;;;;;;4894974;29;20207;-73
2023/12/19 07:42:05;;;;;;;2.35;2.20;;;7.10;99.90;;;;;;4891903;29;20324;-72
2023/12/19 07:44:32;;;;;;;0.95;0.95;;;7.10;99.90;;;;;;4893634;29;20221;-73
2023/12/19 07:46:59;;;;;;;1.95;1.85;;;7.10;99.90;;;;;;4896683;29;20579;-72
2023/12/19 07:49:26;;;;;;;0.85;0.85;;;7.00;99.90;;;;;;4891541;29;20212;-73
2023/12/19 07:51:53;;;;;;;0.93;0.93;;;7.10;99.90;;;;;;4896968;29;20241;-72
2023/12/19 07:54:21;;;;;;;1.00;1.00;;;7.10;99.90;;;;;;4896112;29;20224;-72
2023/12/19 07:56:47;;;;;;;1.27;1.27;;;7.10;99.90;;;;;;4895926;29;20215;-73
2023/12/19 07:59:14;;;;;;;0.82;0.82;;;7.10;99.90;;;;;;4893906;29;20271;-73
2023/12/19 08:01:41;;;;;;;1.13;1.13;;;7.10;99.90;;;;;;4895608;29;20243;-73
2023/12/19 08:04:08;;;;;;;0.88;0.88;;;7.10;99.90;;;;;;4894904;29;20701;-74
2023/12/19 08:06:35;;;;;;;1.83;1.73;;;7.10;99.90;;;;;;4893620;29;20215;-73
2023/12/19 08:09:02;;;;;;;2.30;2.30;;;7.10;99.90;;;;;;4893434;29;20210;-73
2023/12/19 08:11:30;;;;;;;1.70;1.60;;;7.10;99.90;;;;;;4893991;29;20239;-73
2023/12/19 08:13:57;;;;;;;1.75;1.55;;;7.10;99.90;;;;;;4893503;29;20215;-74
2023/12/19 08:16:23;;;;;;;0.57;0.57;;;7.10;99.90;;;;;;4889549;29;20207;-72
2023/12/19 08:18:50;;;;;;;0.85;0.85;;;7.10;99.90;;;;;;4895186;29;20235;-72
2023/12/19 08:21:18;;;;;;;1.20;1.20;;;7.10;99.90;;;;;;4896488;29;20599;-73
2023/12/19 08:23:45;;;;;;;1.20;1.20;;;7.10;99.90;;;;;;4894149;29;20207;-73
2023/12/19 08:26:11;;;;;;;1.33;1.23;;;7.10;99.90;;;;;;4894423;29;20228;-73
2023/12/19 08:28:38;;;;;;;0.65;0.65;;;7.20;99.90;;;;;;4895360;29;20606;-73
2023/12/19 08:31:05;;;;;;;0.90;0.90;;;7.20;99.90;;;;;;4895265;29;20239;-73
2023/12/19 08:33:32;;;;;;;0.85;0.85;;;7.20;99.90;;;;;;4894140;29;20214;-73
2023/12/19 08:35:59;;;;;;;1.00;1.00;;;7.20;99.90;;;;;;4894879;29;20214;-72
2023/12/19 08:38:26;;;;;;;1.10;1.10;;;7.20;99.90;;;;;;4892316;29;20740;-73
2023/12/19 08:40:52;;;;;;;0.77;0.77;;;7.20;99.90;;;;;;4895153;29;20234;-73
2023/12/19 08:43:19;;;;;;;0.47;0.47;;;7.20;99.90;;;;;;4893721;29;20212;-73
2023/12/19 08:45:48;;;;;;;1.00;1.00;;;7.10;99.90;;;;;;4890506;29;20226;-73
2023/12/19 08:48:15;;;;;;;0.85;0.85;;;7.20;99.90;;;;;;4893945;29;20208;-73
2023/12/19 08:50:41;;;;;;;1.52;1.10;;;7.20;99.90;;;;;;4893333;29;20238;-73
2023/12/19 08:53:08;;;;;;;0.60;0.60;;;7.20;99.90;;;;;;4891082;29;20222;-73
2023/12/19 08:55:35;;;;;;;0.80;0.75;;;7.20;99.90;;;;;;4890777;29;20219;-72
2023/12/19 08:58:02;;;;;;;0.40;0.40;;;7.20;99.90;;;;;;4889477;29;20234;-73
2023/12/19 09:00:29;;;;;;;0.60;0.60;;;7.10;99.90;;;;;;4892825;29;20238;-72
2023/12/19 09:02:57;;;;;;;0.60;0.60;;;7.20;99.90;;;;;;4892450;29;20214;-73
2023/12/19 09:05:23;;;;;;;0.47;0.47;;;7.20;99.90;;;;;;4891824;29;20246;-72
2023/12/19 09:07:50;;;;;;;0.57;0.57;;;7.20;99.90;;;;;;4893101;29;20674;-72
2023/12/19 09:10:17;;;;;;;0.38;0.38;;;7.20;99.90;;;;;;4889811;29;20214;-72
2023/12/19 09:12:44;;;;;;;0.60;0.60;;;7.20;99.90;;;;;;4892473;29;20212;-72
2023/12/19 09:15:11;;;;;;;0.70;0.70;;;7.20;99.90;;;;;;4892720;29;20214;-71
2023/12/19 09:17:38;;;;;;;0.60;0.60;;;7.20;99.90;;;;;;4893143;29;20211;-72
2023/12/19 09:20:07;;;;;;;0.60;0.57;;;7.20;99.90;;;;;;4890342;29;20550;-72
2023/12/19 09:22:35;;;;;;;0.85;0.85;;;7.20;99.90;;;;;;4893470;29;20286;-71
2023/12/19 09:25:02;;;;;;;1.40;1.30;;;7.20;99.90;;;;;;4885413;29;20235;-71
2023/12/19 09:27:29;;;;;;;0.70;0.70;;;7.20;99.90;;;;;;4890140;29;20387;-71
2023/12/19 09:29:56;;;;;;;1.27;1.27;;;7.20;99.90;;;;;;4891473;29;20246;-71
2023/12/19 09:32:22;;;;;;;0.80;0.80;;;7.20;99.90;;;;;;4890456;29;20607;-71
2023/12/19 09:34:49;;;;;;;1.15;1.15;;;7.30;99.90;;;;;;4893447;29;20499;-71
2023/12/19 09:37:21;;;;;;;0.50;0.50;;;7.20;99.90;;;;;;4893006;29;20222;-72
2023/12/19 09:39:48;;;;;;;0.30;0.30;;;7.30;99.90;;;;;;4891310;29;20235;-72
2023/12/19 09:42:18;;;;;;;0.70;0.70;;;7.30;99.90;;;;;;4892312;29;20227;-72
2023/12/19 09:44:46;;;;;;;0.82;0.82;;;7.30;99.90;;;;;;4893151;29;20770;-71
2023/12/19 09:47:18;;;;;;;0.68;0.68;;;7.20;99.90;;;;;;4889456;29;20209;-71
2023/12/19 09:49:47;;;;;;;0.75;0.75;;;7.20;99.90;;;;;;4896166;29;20234;-72
2023/12/19 09:52:14;;;;;;;1.17;0.90;;;7.20;99.90;;;;;;4893214;29;20259;-72
2023/12/19 09:54:42;;;;;;;0.75;0.73;;;7.20;99.90;;;;;;4893356;29;20564;-72
2023/12/19 09:57:12;;;;;;;2.03;1.33;;;7.20;99.90;;;;;;4893320;29;20667;-71
2023/12/19 09:59:40;;;;;;;0.70;0.70;;;7.20;99.90;;;;;;4893280;29;20238;-72
2023/12/19 10:02:07;;;;;;;1.35;1.35;;;7.20;99.90;;;;;;4893148;29;20740;-72
2023/12/19 10:04:34;;;;;;;1.08;0.68;;;7.30;99.90;;;;;;4893922;29;20227;-72
2023/12/19 10:07:01;;;;;;;1.08;1.02;;;7.20;99.90;;;;;;4897280;29;20586;-72
2023/12/19 10:09:28;;;;;;;1.55;1.55;;;7.30;99.90;;;;;;4896548;29;20223;-70
2023/12/19 10:12:07;;;;;;;1.70;1.45;;;7.20;99.90;;;;;;4893121;29;20691;-72
2023/12/19 10:14:33;;;;;;;1.60;1.50;;;7.30;99.90;;;;;;4895459;29;20218;-72
2023/12/19 10:17:01;;;;;;;1.20;1.10;;;7.30;99.90;;;;;;4896440;29;20266;-72
2023/12/19 10:19:29;;;;;;;4.50;0.95;;;7.30;99.90;;;;;;4895909;29;20317;-72
2023/12/19 10:22:06;;;;;;;0.95;0.95;;;7.30;99.90;;;;;;4895370;29;20243;-71
2023/12/19 10:24:32;;;;;;;0.70;0.70;;;7.40;99.90;;;;;;4895887;29;20301;-72
2023/12/19 10:27:00;;;;;;;0.30;0.30;;;7.40;99.90;;;;;;4892706;29;20215;-72
2023/12/19 10:29:28;;;;;;;12.40;1.40;;;7.40;99.90;;;;;;4893217;29;20215;-71
2023/12/19 10:31:55;;;;;;;0.43;0.43;;;7.40;99.90;;;;;;4893833;29;20823;-71
2023/12/19 10:34:23;;;;;;;0.85;0.85;;;7.40;99.90;;;;;;4895070;29;20267;-71
2023/12/19 10:36:50;;;;;;;0.80;0.80;;;7.40;99.90;;;;;;4894483;29;20677;-71
2023/12/19 10:39:18;;;;;;;0.90;0.90;;;7.50;99.90;;;;;;4895561;29;20243;-71
2023/12/19 10:41:45;;;;;;;0.93;0.85;;;7.50;99.90;;;;;;4895392;29;20283;-72
2023/12/19 10:44:14;;;;;;;0.85;0.85;;;7.50;99.90;;;;;;4895054;29;20659;-73
2023/12/19 10:46:43;;;;;;;1.85;1.60;;;7.50;99.90;;;;;;4893920;29;20227;-71
2023/12/19 10:49:09;;;;;;;0.52;0.52;;;7.50;99.90;;;;;;4888230;29;20242;-73
2023/12/19 10:51:41;;;;;;;0.57;0.57;;;7.50;99.90;;;;;;4892332;29;20747;-72
2023/12/19 10:54:09;;;;;;;1.05;1.05;;;7.50;99.90;;;;;;4886755;29;20210;-72
2023/12/19 10:56:53;;;;;;;0.90;0.90;;;7.50;99.90;;;;;;4894517;29;20219;-72
2023/12/19 10:59:29;;;;;;;0.80;0.80;;;7.50;99.90;;;;;;4890559;29;20250;-71
2023/12/19 11:02:00;;;;;;;0.90;0.90;;;7.50;99.90;;;;;;4894861;29;20353;-70
2023/12/19 11:04:33;;;;;;;1.60;1.60;;;7.50;99.90;;;;;;4897803;29;20211;-71
2023/12/19 11:07:03;;;;;;;1.20;0.60;;;7.60;99.90;;;;;;4888279;29;20228;-71
2023/12/19 11:09:34;;;;;;;0.43;0.43;;;7.60;99.90;;;;;;4894082;29;20219;-71
2023/12/19 11:12:01;;;;;;;0.50;0.50;;;7.60;99.90;;;;;;4893415;29;20314;-71
2023/12/19 11:14:28;;;;;;;0.38;0.38;;;7.60;99.90;;;;;;4892937;29;20302;-71
2023/12/19 11:17:00;;;;;;;0.57;0.57;;;7.60;99.90;;;;;;4894391;29;20620;-72
2023/12/19 11:19:31;;;;;;;0.38;0.38;;;7.60;99.90;;;;;;4891950;29;20686;-72
2023/12/19 11:22:04;;;;;;;0.40;0.40;;;7.60;99.90;;;;;;4893139;29;20243;-71
2023/12/19 11:24:37;;;;;;;2.03;1.98;;;7.60;99.90;;;;;;4893168;29;20215;-71
2023/12/19 11:27:12;;;;;;;0.40;0.40;;;7.60;99.90;;;;;;4893305;29;20223;-72
2023/12/19 11:29:46;;;;;;;0.35;0.35;;;7.70;99.90;;;;;;4895079;29;20579;-71
2023/12/19 11:32:40;;;;;;;0.60;0.60;;;7.60;99.90;;;;;;4894444;29;20258;-72
2023/12/19 11:35:09;;;;;;;0.40;0.40;;;7.60;99.90;;;;;;4894207;29;20207;-72
2023/12/19 11:37:36;;;;;;;0.50;0.50;;;7.70;99.90;;;;;;4888382;29;20227;-71
2023/12/19 11:40:03;;;;;;;1.25;1.23;;;7.60;99.90;;;;;;4894886;29;20235;-71
2023/12/19 11:42:49;;;;;;;5.90;3.80;;;7.60;99.90;;;;;;4892977;29;20634;-71
2023/12/19 11:45:34;;;;;;;2.28;2.05;;;7.60;99.90;;;;;;4890067;29;20211;-70
2023/12/19 11:48:02;;;;;;;0.70;0.70;;;7.60;99.90;;;;;;4892475;29;20206;-71
2023/12/19 11:50:46;;;;;;;1.58;1.48;;;7.60;99.90;;;;;;4890957;29;20238;-70
2023/12/19 11:53:22;;;;;;;0.57;0.57;;;7.60;99.90;;;;;;4889303;29;20679;-71
2023/12/19 11:55:49;;;;;;;2.10;1.65;;;7.70;99.90;;;;;;4891166;29;20242;-68
2023/12/19 11:58:17;;;;;;;0.63;0.63;;;7.70;99.90;;;;;;4892275;29;20662;-71
2023/12/19 12:00:44;;;;;;;0.50;0.50;;;7.70;99.90;;;;;;4892401;29;20247;-71
2023/12/19 12:03:13;;;;;;;0.68;0.68;;;7.70;99.90;;;;;;4894593;29;20211;-72
2023/12/19 12:05:40;;;;;;;0.93;0.55;;;7.70;99.90;;;;;;4889382;29;20208;-71
2023/12/19 12:08:13;;;;;;;0.73;0.73;;;7.70;99.90;;;;;;4893492;29;20313;-71
2023/12/19 12:10:39;;;;;;;0.80;0.80;;;7.70;99.90;;;;;;4887459;29;20235;-72
2023/12/19 12:13:06;;;;;;;0.57;0.57;;;7.70;99.90;;;;;;4888853;29;20218;-71
2023/12/19 12:15:34;;;;;;;1.10;1.10;;;7.70;99.90;;;;;;4891229;29;20211;-72
2023/12/19 12:18:05;;;;;;;0.50;0.50;;;7.70;99.90;;;;;;4892021;29;20208;-71
2023/12/19 12:20:34;;;;;;;0.70;0.70;;;7.70;99.90;;;;;;4893783;29;20741;-72
2023/12/19 12:23:01;;;;;;;0.93;0.85;;;7.70;99.90;;;;;;4895160;29;20207;-70
2023/12/19 12:25:28;;;;;;;0.95;0.95;;;7.70;99.90;;;;;;4891700;29;20219;-70
2023/12/19 12:28:07;;;;;;;0.55;0.55;;;7.80;99.90;;;;;;4893089;29;20210;-72
2023/12/19 12:30:34;;;;;;;0.65;0.65;;;7.80;99.90;;;;;;4889710;29;20255;-72
2023/12/19 12:33:04;;;;;;;0.73;0.73;;;7.80;99.90;;;;;;4893599;29;20203;-72
2023/12/19 12:35:36;;;;;;;0.77;0.77;;;7.80;99.90;;;;;;4890898;29;20218;-72
2023/12/19 12:38:06;;;;;;;1.30;1.20;;;7.80;99.90;;;;;;4895195;29;20230;-72
2023/12/19 12:40:33;;;;;;;1.20;1.20;;;7.80;99.90;;;;;;4894472;29;20250;-70
2023/12/19 12:43:33;;;;;;;0.82;0.82;;;7.80;99.90;;;;;;4894170;29;20644;-70
2023/12/19 12:46:08;;;;;;;0.82;0.82;;;7.80;99.90;;;;;;4892826;29;20714;-70
2023/12/19 12:48:36;;;;;;;0.70;0.60;;;7.80;99.90;;;;;;4889834;29;20206;-71
2023/12/19 12:51:05;;;;;;;0.95;0.95;;;7.80;99.90;;;;;;4892650;29;20294;-71
2023/12/19 12:53:33;;;;;;;0.40;0.40;;;7.80;99.90;;;;;;4892357;29;20325;-69
2023/12/19 12:56:12;;;;;;;0.40;0.40;;;7.90;99.90;;;;;;4892181;29;20566;-71
2023/12/19 12:58:39;;;;;;;0.40;0.40;;;7.90;99.90;;;;;;4893593;29;20213;-70
2023/12/19 13:01:06;;;;;;;0.45;0.45;;;7.90;99.90;;;;;;4891374;29;20235;-70
2023/12/19 13:03:33;;;;;;;0.50;0.50;;;7.90;99.90;;;;;;4893720;29;20216;-71
2023/12/19 13:06:01;;;;;;;0.80;0.80;;;7.90;99.90;;;;;;4889080;29;20210;-71
2023/12/19 13:08:29;;;;;;;1.50;1.40;;;7.90;99.90;;;;;;4895240;29;20211;-70
2023/12/19 13:10:58;;;;;;;1.75;1.75;;;7.90;99.90;;;;;;4893547;29;20235;-71
2023/12/19 13:13:25;;;;;;;0.60;0.60;;;7.90;99.90;;;;;;4895316;29;20212;-71
2023/12/19 13:15:53;;;;;;;0.75;0.75;;;7.90;99.90;;;;;;4891132;29;20216;-71
2023/12/19 13:18:19;;;;;;;0.70;0.70;;;7.90;99.90;;;;;;4888172;29;20296;-71
2023/12/19 13:20:46;;;;;;;0.60;0.60;;;7.90;99.90;;;;;;4892233;29;20231;-72
2023/12/19 13:23:13;;;;;;;0.73;0.73;;;7.90;99.90;;;;;;4892860;29;20207;-70
2023/12/19 13:25:41;;;;;;;0.73;0.73;;;7.90;99.90;;;;;;4887843;29;20283;-71
2023/12/19 13:28:09;;;;;;;0.60;0.60;;;7.90;99.90;;;;;;4888960;29;20214;-72
2023/12/19 13:30:36;;;;;;;0.73;0.73;;;7.90;99.90;;;;;;4887423;29;20231;-70
2023/12/19 13:33:04;;;;;;;0.50;0.50;;;7.90;99.90;;;;;;4890576;29;20247;-72
2023/12/19 13:35:31;;;;;;;0.90;0.90;;;7.90;99.90;;;;;;4892421;29;20275;-72
2023/12/19 13:37:58;;;;;;;0.50;0.50;;;7.90;99.90;;;;;;4893323;29;20210;-73
2023/12/19 13:40:25;;;;;;;1.10;1.10;;;7.90;99.90;;;;;;4896415;29;20599;-73
2023/12/19 13:42:53;;;;;;;1.08;1.08;;;7.90;99.90;;;;;;4891443;29;20262;-72
2023/12/19 13:45:20;;;;;;;2.15;1.98;;;7.90;99.90;;;;;;4895191;29;20660;-72
2023/12/19 13:47:46;;;;;;;1.70;1.70;;;7.90;99.90;;;;;;4894986;29;20766;-72
2023/12/19 13:50:13;;;;;;;1.08;1.08;;;7.90;99.90;;;;;;4891085;29;20211;-72
2023/12/19 13:52:42;;;;;;;1.30;1.20;;;8.00;99.90;;;;;;4888938;29;20231;-73
2023/12/19 13:55:09;;;;;;;1.70;1.70;;;8.00;99.90;;;;;;4890762;29;20204;-73
2023/12/19 13:57:37;;;;;;;1.00;1.00;;;8.00;99.90;;;;;;4893387;29;20215;-73
2023/12/19 14:00:07;;;;;;;1.00;1.00;;;7.90;99.90;;;;;;4893763;29;20234;-72
2023/12/19 14:02:34;;;;;;;1.27;1.17;;;8.00;99.90;;;;;;4892760;29;20604;-72
2023/12/19 14:05:01;;;;;;;0.68;0.68;;;8.00;99.90;;;;;;4896277;29;20211;-71
2023/12/19 14:07:28;;;;;;;0.82;0.82;;;8.00;99.90;;;;;;4890694;29;20216;-72
2023/12/19 14:09:54;;;;;;;1.30;1.25;;;8.00;99.90;;;;;;4895655;29;20218;-71
2023/12/19 14:12:21;;;;;;;0.85;0.85;;;8.00;99.90;;;;;;4897003;29;20234;-72
2023/12/19 14:14:48;;;;;;;0.93;0.93;;;8.00;99.90;;;;;;4896604;29;20215;-72
2023/12/19 14:17:16;;;;;;;1.35;1.35;;;8.00;99.90;;;;;;4896460;29;20841;-72
2023/12/19 14:19:42;;;;;;;2.85;2.22;;;8.00;99.90;;;;;;4893771;29;20331;-72
2023/12/19 14:22:09;;;;;;;2.05;2.05;;;8.00;99.90;;;;;;4896279;29;20333;-71
2023/12/19 14:24:36;;;;;;;1.20;1.20;;;8.00;99.90;;;;;;4894890;29;20234;-72
2023/12/19 14:27:04;;;;;;;1.23;1.23;;;8.00;99.90;;;;;;4891202;29;20353;-72
2023/12/19 14:29:32;;;;;;;1.20;1.20;;;8.00;99.90;;;;;;4894280;29;20215;-71
2023/12/19 14:31:59;;;;;;;3.58;1.83;;;8.00;99.90;;;;;;4894008;29;20228;-72
2023/12/19 14:34:27;;;;;;;0.82;0.82;;;8.00;99.90;;;;;;4893700;29;20600;-71
2023/12/19 14:36:54;;;;;;;2.97;1.90;;;8.00;99.90;;;;;;4885144;29;20214;-71
2023/12/19 14:39:23;;;;;;;1.63;1.63;;;8.00;99.90;;;;;;4890711;29;20235;-71
2023/12/19 14:41:50;;;;;;;1.83;1.73;;;8.00;99.90;;;;;;4889145;29;20227;-70
2023/12/19 14:44:17;;;;;;;1.70;1.60;;;8.10;99.90;;;;;;4893336;29;20223;-69
2023/12/19 14:46:44;;;;;;;1.83;1.33;;;8.10;99.90;;;;;;4897941;29;20214;-70
2023/12/19 14:49:11;;;;;;;1.45;1.45;;;8.10;99.90;;;;;;4891780;29;20295;-71
2023/12/19 14:51:41;;;;;;;2.58;2.38;;;8.10;99.90;;;;;;4895735;29;20239;-70
2023/12/19 14:54:07;;;;;;;1.80;1.70;;;8.10;99.90;;;;;;4890573;29;20222;-71
2023/12/19 14:56:34;;;;;;;1.65;1.63;;;8.10;99.90;;;;;;4895439;29;20203;-71
2023/12/19 14:59:01;;;;;;;2.35;2.22;;;8.10;99.90;;;;;;4892756;29;20215;-71
2023/12/19 15:01:31;;;;;;;2.90;2.65;;;8.10;99.90;;;;;;4890428;29;20236;-71
2023/12/19 15:03:58;;;;;;;1.70;1.70;;;8.10;99.90;;;;;;4893096;29;20611;-69
2023/12/19 15:06:25;;;;;;;1.48;1.45;;;8.10;99.90;;;;;;4893303;29;20241;-72
2023/12/19 15:08:53;;;;;;;1.52;1.50;;;8.10;99.90;;;;;;4891733;29;20208;-71
2023/12/19 15:11:20;;;;;;;2.30;2.10;;;8.10;99.90;;;;;;4892469;29;20235;-71
2023/12/19 15:13:47;;;;;;;1.55;1.45;;;8.10;99.90;;;;;;4897492;29;20221;-71
2023/12/19 15:16:14;;;;;;;1.42;1.42;;;8.10;99.90;;;;;;4890067;29;20295;-72
2023/12/19 15:18:41;;;;;;;1.98;1.90;;;8.00;99.90;;;;;;4892732;29;20211;-72
2023/12/19 15:21:08;;;;;;;2.47;2.38;;;8.10;99.90;;;;;;4896566;29;20242;-73
2023/12/19 15:23:35;;;;;;;1.42;1.40;;;8.10;99.90;;;;;;4891824;29;20281;-73
2023/12/19 15:26:03;;;;;;;1.17;1.17;;;8.10;99.90;;;;;;4898187;29;20271;-73
2023/12/19 15:28:30;;;;;;;1.75;1.65;;;8.10;99.90;;;;;;4904305;29;20666;-74
2023/12/19 15:30:56;;;;;;;1.98;1.77;;;8.10;99.90;;;;;;4905409;29;20230;-72
2023/12/19 15:33:23;;;;;;;2.92;2.67;;;8.10;99.90;;;;;;4897620;29;20309;-73
2023/12/19 15:35:50;;;;;;;2.67;2.50;;;8.10;99.90;;;;;;4914414;29;20299;-73
2023/12/19 15:38:16;;;;;;;1.95;1.95;;;8.10;99.90;;;;;;4915119;29;20216;-72
2023/12/19 15:40:44;;;;;;;2.03;1.90;;;8.10;99.90;;;;;;4906941;29;20238;-72
2023/12/19 15:43:13;;;;;;;2.10;2.00;;;8.10;99.90;;;;;;4900955;29;20238;-71
2023/12/19 15:45:40;;;;;;;2.92;2.78;;;8.10;99.90;;;;;;4905180;29;20769;-73
2023/12/19 15:48:07;;;;;;;2.33;2.22;;;8.10;99.90;;;;;;4896790;29;20208;-74
2023/12/19 15:50:34;;;;;;;2.63;2.55;;;8.10;99.90;;;;;;4895703;29;20235;-74
2023/12/19 15:53:01;;;;;;;1.90;1.80;;;8.10;99.90;;;;;;4883932;29;20606;-73
2023/12/19 15:55:28;;;;;;;2.50;2.40;;;8.10;99.90;;;;;;4894447;29;20219;-75
2023/12/19 15:57:55;;;;;;;2.53;2.38;;;8.10;99.90;;;;;;4892550;29;20211;-73
2023/12/19 16:00:23;;;;;;;1.75;1.75;;;8.10;99.90;;;;;;4889244;29;20224;-74
2023/12/19 16:02:50;;;;;;;2.90;2.72;;;8.10;99.90;;;;;;4901427;29;20204;-75
2023/12/19 16:05:17;;;;;;;2.70;2.60;;;8.10;99.90;;;;;;4895147;29;20218;-75
2023/12/19 16:07:45;;;;;;;3.08;2.80;;;8.10;99.90;;;;;;4894429;29;20229;-75
2023/12/19 16:10:12;;;;;;;2.70;2.50;;;8.10;99.90;;;;;;4896215;29;20235;-74
2023/12/19 16:12:38;;;;;;;2.78;2.58;;;8.10;99.90;;;;;;4894819;29;20211;-75
2023/12/19 16:15:06;;;;;;;2.33;2.15;;;8.10;99.90;;;;;;4893572;29;20227;-74
2023/12/19 16:17:35;;;;;;;3.20;3.00;;;8.10;99.90;;;;;;4894227;29;20331;-73
2023/12/19 16:20:02;;;;;;;2.75;2.55;;;8.10;99.90;;;;;;4893348;29;20231;-74
2023/12/19 16:22:29;;;;;;;2.60;2.50;;;8.10;99.90;;;;;;4897052;29;20853;-75
2023/12/19 16:24:55;;;;;;;1.80;1.70;;;8.10;99.90;;;;;;4893668;29;20219;-75
2023/12/19 16:27:22;;;;;;;3.67;2.37;;;8.10;99.90;;;;;;4894782;29;20291;-74
2023/12/19 16:29:49;;;;;;;3.53;3.22;;;8.10;99.90;;;;;;4891722;29;20694;-73
2023/12/19 16:32:16;;;;;;;1.60;1.60;;;8.10;99.90;;;;;;4894194;29;20235;-73
2023/12/19 16:34:44;;;;;;;2.20;2.10;;;8.10;99.90;;;;;;4893442;29;20561;-72
2023/12/19 16:37:11;;;;;;;2.58;2.38;;;8.10;99.90;;;;;;4889920;29;20220;-74
2023/12/19 16:39:38;;;;;;;2.53;2.42;;;8.10;99.90;;;;;;4890483;29;20212;-75
2023/12/19 16:42:07;;;;;;;1.60;1.50;;;8.10;99.90;;;;;;4882021;29;20246;-76
2023/12/19 16:44:34;;;;;;;3.25;3.00;;;8.10;99.90;;;;;;4891585;29;20345;-73
2023/12/19 16:47:02;;;;;;;7.43;4.95;;;8.10;99.90;;;;;;4893568;29;20222;-73
2023/12/19 16:49:29;;;;;;;2.42;2.20;;;8.10;99.90;;;;;;4889550;29;20219;-76
2023/12/19 16:51:57;;;;;;;2.33;2.20;;;8.20;99.90;;;;;;4891240;29;20219;-73
2023/12/19 16:54:23;;;;;;;6.30;4.65;;;8.20;99.90;;;;;;4889774;29;20267;-73
2023/12/19 16:56:50;;;;;;;2.90;2.80;;;8.30;99.90;;;;;;4888414;29;20572;-73
2023/12/19 16:59:17;;;;;;;6.68;5.40;;;8.20;99.90;;;;;;4888562;29;20900;-72
2023/12/19 17:01:44;;;;;;;2.95;2.85;;;8.20;99.90;;;;;;4888563;29;20302;-72
2023/12/19 17:04:12;;;;;;;4.53;4.05;;;8.20;99.90;;;;;;4887563;29;20681;-72
2023/12/19 17:06:43;;;;;;;2.72;2.53;;;8.20;99.90;;;;;;4889828;29;20217;-72
2023/12/19 17:09:11;;;;;;;6.10;5.60;;;8.20;99.90;;;;;;4888554;29;20579;-72
2023/12/19 17:11:38;;;;;;;3.95;3.75;;;8.10;99.90;;;;;;4894383;29;20243;-75
2023/12/19 17:14:04;;;;;;;2.95;2.75;;;8.10;99.90;;;;;;4899373;29;20670;-73
2023/12/19 17:16:31;;;;;;;5.93;5.43;;;8.10;99.90;;;;;;4895368;29;20327;-74
2023/12/19 17:18:58;;;;;;;2.65;2.45;;;8.10;99.90;;;;;;4895173;29;20220;-72
2023/12/19 17:21:25;;;;;;;3.72;3.35;;;8.10;99.90;;;;;;4898319;29;20254;-72
2023/12/19 17:23:51;;;;;;;2.50;2.30;;;8.10;99.90;;;;;;4899103;29;20214;-72
2023/12/19 17:26:20;;;;;;;4.05;3.45;;;8.10;99.90;;;;;;4898285;29;20203;-72
2023/12/19 17:28:48;;;;;;;3.60;3.03;;;8.10;99.90;;;;;;4899011;29;20667;-73
2023/12/19 17:31:14;;;;;;;3.22;3.05;;;8.10;99.90;;;;;;4896113;29;20275;-73
2023/12/19 17:33:41;;;;;;;3.22;2.90;;;8.10;99.90;;;;;;4894772;29;20234;-73
2023/12/19 17:36:08;;;;;;;3.85;3.30;;;8.10;99.90;;;;;;4898056;29;20639;-74
2023/12/19 17:38:35;;;;;;;4.80;4.30;;;8.10;99.90;;;;;;4900882;29;20238;-72
2023/12/19 17:41:02;;;;;;;3.85;3.53;;;8.10;99.90;;;;;;4898069;29;20319;-73
2023/12/19 17:43:30;;;;;;;6.13;4.20;;;8.10;99.90;;;;;;4898339;29;20219;-73
2023/12/19 17:45:57;;;;;;;10.60;7.00;;;8.10;99.90;;;;;;4895516;29;20207;-73
2023/12/19 17:48:24;;;;;;;5.43;4.78;;;8.10;99.90;;;;;;4891968;29;20226;-74
2023/12/19 17:50:50;;;;;;;3.97;3.60;;;8.10;99.90;;;;;;4889084;29;20223;-72
2023/12/19 17:53:18;;;;;;;3.60;3.40;;;8.10;99.90;;;;;;4893702;29;20280;-73
2023/12/19 17:55:44;;;;;;;6.32;4.15;;;8.10;99.90;;;;;;4894003;29;20230;-73
2023/12/19 17:58:11;;;;;;;3.83;3.47;;;8.10;99.90;;;;;;4895475;29;20203;-73
2023/12/19 18:00:39;;;;;;;4.85;4.35;;;8.10;99.90;;;;;;4899471;29;20619;-74
2023/12/19 18:03:06;;;;;;;3.15;2.90;;;8.10;99.90;;;;;;4896957;29;20322;-74